createdAt,value
2017-11-09T00:02:34.684Z,46.53
2017-11-09T00:17:36.671Z,46.67
2017-11-09T00:32:34.665Z,40.37
2017-11-09T00:47:35.006Z,43.77
2017-11-09T01:02:34.888Z,38.83
2017-11-09T01:17:36.842Z,41.50
2017-11-09T01:32:34.821Z,40.03
2017-11-09T01:47:35.677Z,41.37
2017-11-09T02:02:35.167Z,44.40
2017-11-09T02:17:35.073Z,47.33
2017-11-09T02:32:34.823Z,49.60
2017-11-09T02:47:34.412Z,47.57
2017-11-09T03:02:34.838Z,47.43
2017-11-09T03:17:34.247Z,52.00
2017-11-09T03:32:35.693Z,48.50
2017-11-09T03:47:34.593Z,40.80
2017-11-09T04:02:34.526Z,43.83
2017-11-09T04:17:34.489Z,46.83
2017-11-09T04:32:33.890Z,45.30
2017-11-09T04:47:34.865Z,52.67
2017-11-09T05:02:36.827Z,52.87
2017-11-09T05:17:34.726Z,51.23
2017-11-09T05:32:34.682Z,51.47
2017-11-09T05:47:35.052Z,54.03
2017-11-09T06:02:37.001Z,60.13
2017-11-09T06:17:34.982Z,60.23
2017-11-09T06:32:34.633Z,52.20
2017-11-09T06:47:34.112Z,57.00
2017-11-09T07:02:35.264Z,51.17
2017-11-09T07:17:38.134Z,56.67
2017-11-09T07:32:37.044Z,53.07
2017-11-09T07:47:34.490Z,44.47
2017-11-09T08:02:34.197Z,48.47
2017-11-09T08:17:34.195Z,44.70
2017-11-09T08:32:36.547Z,47.97
2017-11-09T08:47:36.185Z,50.27
2017-11-09T09:02:34.637Z,53.13
2017-11-09T09:17:34.562Z,62.13
2017-11-09T09:32:40.887Z,57.27
2017-11-09T09:47:34.921Z,63.43
2017-11-09T10:02:37.298Z,61.33
2017-11-09T10:17:34.752Z,64.53
2017-11-09T10:32:38.677Z,57.93
2017-11-09T10:47:35.140Z,56.97
2017-11-09T11:02:35.110Z,45.07
2017-11-09T11:17:34.981Z,41.37
2017-11-09T11:32:35.027Z,33.77
2017-11-09T11:47:34.394Z,34.30
2017-11-09T12:02:37.318Z,30.00
2017-11-09T12:17:34.207Z,32.60
2017-11-09T12:32:35.226Z,26.60
2017-11-09T12:47:34.556Z,22.50
2017-11-09T13:02:34.546Z,15.33
2017-11-09T13:17:34.411Z,30.67
2017-11-09T13:32:36.745Z,37.17
2017-11-09T13:47:34.761Z,31.30
2017-11-09T14:02:34.752Z,31.97
2017-11-09T14:17:34.685Z,27.43
2017-11-09T14:32:34.570Z,33.13
2017-11-09T14:47:34.965Z,50.97
2017-11-09T15:02:37.885Z,44.47
2017-11-09T15:17:35.866Z,52.67
2017-11-09T15:32:35.609Z,45.37
2017-11-09T15:47:34.235Z,38.57
2017-11-09T16:02:37.092Z,41.60
2017-11-09T16:17:37.106Z,32.87
2017-11-09T16:32:34.964Z,31.00
2017-11-09T16:47:34.404Z,25.03
2017-11-09T17:02:36.358Z,28.73
2017-11-09T17:17:34.330Z,27.03
2017-11-09T17:32:34.249Z,33.60
2017-11-09T17:47:34.703Z,22.83
2017-11-09T18:02:36.611Z,27.00
2017-11-09T18:17:36.533Z,27.63
2017-11-09T18:32:34.425Z,26.50
2017-11-09T18:47:34.934Z,27.03
2017-11-09T19:02:34.781Z,21.47
2017-11-09T19:17:34.749Z,25.93
2017-11-09T19:32:34.696Z,33.90
2017-11-09T19:47:35.101Z,25.63
2017-11-09T20:02:35.014Z,29.43
2017-11-09T20:17:34.959Z,35.97
2017-11-09T20:32:35.031Z,34.90
2017-11-09T20:47:34.285Z,34.67
2017-11-09T21:02:34.217Z,23.07
2017-11-09T21:17:34.154Z,19.90
2017-11-09T21:32:35.186Z,26.57
2017-11-09T21:47:36.053Z,20.53
2017-11-09T22:02:37.433Z,22.07
2017-11-09T22:17:33.901Z,18.93
2017-11-09T22:32:36.312Z,18.87
2017-11-09T22:47:36.772Z,21.83
2017-11-09T23:02:34.717Z,19.70
2017-11-09T23:17:37.673Z,21.73
2017-11-09T23:32:37.685Z,19.33
2017-11-09T23:47:35.094Z,23.37
